sensor_id;sensor_type;location;lat;lon;timestamp;pressure;altitude;pressure_sealevel;temperature;humidity
818;BME280;391;51.052;6.954;2023-03-22T00:00:32;100481.47;;;12.10;76.84
818;BME280;391;51.052;6.954;2023-03-22T00:02:36;100477.94;;;12.08;76.82
818;BME280;391;51.052;6.954;2023-03-22T00:04:41;100483.28;;;12.14;77.05
818;BME280;391;51.052;6.954;2023-03-22T00:06:46;100483.13;;;12.05;77.13
818;BME280;391;51.052;6.954;2023-03-22T00:08:50;100470.94;;;12.05;77.24
818;BME280;391;51.052;6.954;2023-03-22T00:10:54;100475.94;;;11.93;77.84
818;BME280;391;51.052;6.954;2023-03-22T00:12:57;100467.66;;;11.71;78.35
818;BME280;391;51.052;6.954;2023-03-22T00:15:01;100430.84;;;11.60;78.65
818;BME280;391;51.052;6.954;2023-03-22T00:17:04;100478.56;;;11.95;78.38
818;BME280;391;51.052;6.954;2023-03-22T00:19:08;100468.28;;;12.04;77.93
818;BME280;391;51.052;6.954;2023-03-22T00:21:13;100352.13;;;11.39;78.14
818;BME280;391;51.052;6.954;2023-03-22T00:23:18;100444.38;;;11.83;78.23
818;BME280;391;51.052;6.954;2023-03-22T00:25:22;100465.72;;;12.07;77.83
818;BME280;391;51.052;6.954;2023-03-22T00:27:26;100462.88;;;11.93;78.62
818;BME280;391;51.052;6.954;2023-03-22T00:29:30;100456.88;;;11.99;78.76
818;BME280;391;51.052;6.954;2023-03-22T00:31:33;100451.56;;;11.94;78.61
818;BME280;391;51.052;6.954;2023-03-22T00:33:37;100449.97;;;12.02;78.76
818;BME280;391;51.052;6.954;2023-03-22T00:35:47;100444.00;;;12.09;78.48
818;BME280;391;51.052;6.954;2023-03-22T00:37:50;100444.91;;;12.11;78.49
818;BME280;391;51.052;6.954;2023-03-22T00:39:55;100438.69;;;12.05;78.73
818;BME280;391;51.052;6.954;2023-03-22T00:41:59;100436.97;;;12.07;78.75
818;BME280;391;51.052;6.954;2023-03-22T00:44:02;100436.34;;;12.20;78.24
818;BME280;391;51.052;6.954;2023-03-22T00:46:06;100432.94;;;12.26;78.05
818;BME280;391;51.052;6.954;2023-03-22T00:48:10;100433.97;;;12.34;77.98
818;BME280;391;51.052;6.954;2023-03-22T00:50:14;100432.34;;;12.40;77.72
818;BME280;391;51.052;6.954;2023-03-22T00:52:18;100426.19;;;12.38;77.69
818;BME280;391;51.052;6.954;2023-03-22T00:54:22;100418.28;;;12.35;77.34
818;BME280;391;51.052;6.954;2023-03-22T00:56:27;100421.13;;;12.47;77.21
818;BME280;391;51.052;6.954;2023-03-22T00:58:38;100418.41;;;12.41;77.34
818;BME280;391;51.052;6.954;2023-03-22T01:00:42;100414.09;;;12.43;77.44
818;BME280;391;51.052;6.954;2023-03-22T01:02:46;100422.03;;;12.49;77.22
818;BME280;391;51.052;6.954;2023-03-22T01:04:54;100417.66;;;12.48;77.13
818;BME280;391;51.052;6.954;2023-03-22T01:06:58;100376.31;;;12.26;77.16
818;BME280;391;51.052;6.954;2023-03-22T01:09:03;100329.69;;;11.98;76.98
818;BME280;391;51.052;6.954;2023-03-22T01:11:08;100404.56;;;12.48;76.98
818;BME280;391;51.052;6.954;2023-03-22T01:13:13;100407.84;;;12.35;77.26
818;BME280;391;51.052;6.954;2023-03-22T01:15:19;100406.13;;;12.36;77.42
818;BME280;391;51.052;6.954;2023-03-22T01:17:26;100400.09;;;12.40;77.31
818;BME280;391;51.052;6.954;2023-03-22T01:19:29;100398.22;;;12.31;77.57
818;BME280;391;51.052;6.954;2023-03-22T01:21:33;100404.38;;;12.36;77.40
818;BME280;391;51.052;6.954;2023-03-22T01:23:37;100397.25;;;12.26;77.72
818;BME280;391;51.052;6.954;2023-03-22T01:25:41;100396.31;;;12.21;77.94
818;BME280;391;51.052;6.954;2023-03-22T01:27:45;100398.06;;;12.24;77.76
818;BME280;391;51.052;6.954;2023-03-22T01:29:50;100390.03;;;12.11;78.25
818;BME280;391;51.052;6.954;2023-03-22T01:31:54;100390.13;;;12.17;78.34
818;BME280;391;51.052;6.954;2023-03-22T01:33:57;100390.16;;;12.19;78.18
818;BME280;391;51.052;6.954;2023-03-22T01:36:02;100390.97;;;12.15;78.30
818;BME280;391;51.052;6.954;2023-03-22T01:38:08;100383.13;;;12.16;78.55
818;BME280;391;51.052;6.954;2023-03-22T01:40:18;100383.22;;;12.21;78.26
818;BME280;391;51.052;6.954;2023-03-22T01:42:22;100389.34;;;12.22;78.51
818;BME280;391;51.052;6.954;2023-03-22T01:44:28;100380.63;;;12.23;78.54
818;BME280;391;51.052;6.954;2023-03-22T01:46:35;100377.13;;;12.20;78.43
818;BME280;391;51.052;6.954;2023-03-22T01:48:41;100374.56;;;12.24;78.35
818;BME280;391;51.052;6.954;2023-03-22T01:50:54;100376.31;;;12.26;78.46
818;BME280;391;51.052;6.954;2023-03-22T01:53:02;100370.97;;;12.17;78.37
818;BME280;391;51.052;6.954;2023-03-22T01:55:11;100368.25;;;12.12;78.75
818;BME280;391;51.052;6.954;2023-03-22T01:57:19;100362.88;;;12.03;78.92
818;BME280;391;51.052;6.954;2023-03-22T01:59:23;100358.53;;;12.02;78.93
818;BME280;391;51.052;6.954;2023-03-22T02:01:55;100361.88;;;11.95;79.33
818;BME280;391;51.052;6.954;2023-03-22T02:04:05;100354.78;;;11.88;79.91
818;BME280;391;51.052;6.954;2023-03-22T02:06:10;100269.34;;;11.32;79.62
818;BME280;391;51.052;6.954;2023-03-22T02:08:14;100354.84;;;11.91;79.68
818;BME280;391;51.052;6.954;2023-03-22T02:10:31;100259.69;;;11.26;80.08
818;BME280;391;51.052;6.954;2023-03-22T02:12:44;100352.13;;;11.84;80.08
818;BME280;391;51.052;6.954;2023-03-22T02:15:21;100343.25;;;11.76;80.36
818;BME280;391;51.052;6.954;2023-03-22T02:17:52;100342.22;;;11.69;80.56
818;BME280;391;51.052;6.954;2023-03-22T02:25:57;100330.72;;;11.58;81.42
818;BME280;391;51.052;6.954;2023-03-22T02:28:24;100327.09;;;11.50;81.62
818;BME280;391;51.052;6.954;2023-03-22T02:30:49;100323.56;;;11.48;81.83
818;BME280;391;51.052;6.954;2023-03-22T02:33:29;100296.38;;;11.35;81.86
818;BME280;391;51.052;6.954;2023-03-22T02:35:54;100318.41;;;11.51;82.01
818;BME280;391;51.052;6.954;2023-03-22T02:38:28;100325.31;;;11.49;81.86
818;BME280;391;51.052;6.954;2023-03-22T02:40:45;100320.75;;;11.37;82.20
818;BME280;391;51.052;6.954;2023-03-22T02:42:55;100319.75;;;11.31;82.30
818;BME280;391;51.052;6.954;2023-03-22T02:45:06;100313.75;;;11.35;82.75
818;BME280;391;51.052;6.954;2023-03-22T02:47:18;100312.00;;;11.34;82.71
818;BME280;391;51.052;6.954;2023-03-22T02:49:29;100310.16;;;11.30;82.84
818;BME280;391;51.052;6.954;2023-03-22T02:51:39;100305.81;;;11.30;82.86
818;BME280;391;51.052;6.954;2023-03-22T02:53:48;100296.25;;;11.29;82.88
818;BME280;391;51.052;6.954;2023-03-22T02:55:57;100273.34;;;11.13;83.04
818;BME280;391;51.052;6.954;2023-03-22T02:58:06;100295.22;;;11.21;83.12
818;BME280;391;51.052;6.954;2023-03-22T03:00:13;100290.06;;;11.24;83.00
818;BME280;391;51.052;6.954;2023-03-22T03:02:20;100291.81;;;11.25;83.28
818;BME280;391;51.052;6.954;2023-03-22T03:04:27;100287.56;;;11.30;83.31
818;BME280;391;51.052;6.954;2023-03-22T03:06:34;100292.78;;;11.30;83.13
818;BME280;391;51.052;6.954;2023-03-22T03:08:41;100290.16;;;11.29;83.11
818;BME280;391;51.052;6.954;2023-03-22T03:10:49;100276.19;;;11.27;83.19
818;BME280;391;51.052;6.954;2023-03-22T03:12:54;100284.09;;;11.31;83.21
818;BME280;391;51.052;6.954;2023-03-22T03:14:58;100286.72;;;11.33;82.98
818;BME280;391;51.052;6.954;2023-03-22T03:17:12;100287.63;;;11.33;83.15
818;BME280;391;51.052;6.954;2023-03-22T03:19:26;100283.97;;;11.24;83.08
818;BME280;391;51.052;6.954;2023-03-22T03:21:37;100285.63;;;11.19;83.01
818;BME280;391;51.052;6.954;2023-03-22T03:23:52;100282.94;;;11.15;83.53
818;BME280;391;51.052;6.954;2023-03-22T03:26:02;100285.66;;;11.22;83.21
818;BME280;391;51.052;6.954;2023-03-22T03:28:15;100182.78;;;10.61;83.51
818;BME280;391;51.052;6.954;2023-03-22T03:30:30;100278.69;;;11.21;83.72
818;BME280;391;51.052;6.954;2023-03-22T03:32:41;100279.63;;;11.24;83.68
818;BME280;391;51.052;6.954;2023-03-22T03:34:47;100282.22;;;11.24;83.61
818;BME280;391;51.052;6.954;2023-03-22T03:36:57;100183.78;;;10.68;83.39
818;BME280;391;51.052;6.954;2023-03-22T03:39:04;100283.16;;;11.28;83.40
818;BME280;391;51.052;6.954;2023-03-22T03:41:13;100269.22;;;11.26;83.40
818;BME280;391;51.052;6.954;2023-03-22T03:43:20;100267.50;;;11.26;83.24
818;BME280;391;51.052;6.954;2023-03-22T03:45:24;100168.13;;;10.68;83.55
818;BME280;391;51.052;6.954;2023-03-22T03:47:28;100267.59;;;11.32;83.59
818;BME280;391;51.052;6.954;2023-03-22T03:49:33;100276.25;;;11.30;83.61
818;BME280;391;51.052;6.954;2023-03-22T03:51:47;100271.72;;;11.20;83.95
818;BME280;391;51.052;6.954;2023-03-22T03:53:51;100269.75;;;11.08;84.25
818;BME280;391;51.052;6.954;2023-03-22T03:55:56;100274.91;;;11.05;84.77
818;BME280;391;51.052;6.954;2023-03-22T03:58:06;100273.19;;;11.05;85.11
818;BME280;391;51.052;6.954;2023-03-22T04:00:13;100277.50;;;11.03;85.23
818;BME280;391;51.052;6.954;2023-03-22T04:02:43;100196.75;;;10.65;84.45
818;BME280;391;51.052;6.954;2023-03-22T04:05:04;100279.69;;;11.27;84.23
818;BME280;391;51.052;6.954;2023-03-22T04:07:08;100277.06;;;11.26;84.04
818;BME280;391;51.052;6.954;2023-03-22T04:09:13;100277.13;;;11.30;83.48
818;BME280;391;51.052;6.954;2023-03-22T04:11:21;100286.56;;;11.24;83.62
818;BME280;391;51.052;6.954;2023-03-22T04:13:28;100286.63;;;11.27;83.85
818;BME280;391;51.052;6.954;2023-03-22T04:15:36;100284.88;;;11.26;83.24
818;BME280;391;51.052;6.954;2023-03-22T04:17:47;100284.84;;;11.24;83.23
818;BME280;391;51.052;6.954;2023-03-22T04:19:52;100287.38;;;11.20;83.64
818;BME280;391;51.052;6.954;2023-03-22T04:21:57;100290.84;;;11.20;83.56
818;BME280;391;51.052;6.954;2023-03-22T04:24:01;100275.84;;;11.07;83.59
818;BME280;391;51.052;6.954;2023-03-22T04:26:10;100290.78;;;11.17;83.67
818;BME280;391;51.052;6.954;2023-03-22T04:28:25;100281.13;;;11.11;83.75
818;BME280;391;51.052;6.954;2023-03-22T04:30:31;100276.88;;;11.17;83.56
818;BME280;391;51.052;6.954;2023-03-22T04:32:54;100278.56;;;11.14;83.86
818;BME280;391;51.052;6.954;2023-03-22T04:35:08;100282.88;;;11.12;84.01
818;BME280;391;51.052;6.954;2023-03-22T04:37:12;100282.06;;;11.13;83.98
818;BME280;391;51.052;6.954;2023-03-22T04:39:42;100284.56;;;11.10;84.39
818;BME280;391;51.052;6.954;2023-03-22T04:42:03;100275.13;;;11.17;84.21
818;BME280;391;51.052;6.954;2023-03-22T04:44:08;100269.16;;;11.23;84.06
818;BME280;391;51.052;6.954;2023-03-22T04:46:17;100275.22;;;11.22;83.90
818;BME280;391;51.052;6.954;2023-03-22T04:48:38;100257.78;;;11.19;84.46
818;BME280;391;51.052;6.954;2023-03-22T04:50:44;100249.81;;;11.11;84.70
818;BME280;391;51.052;6.954;2023-03-22T04:52:48;100246.25;;;11.06;84.73
818;BME280;391;51.052;6.954;2023-03-22T04:54:52;100243.53;;;11.02;84.71
818;BME280;391;51.052;6.954;2023-03-22T04:56:55;100245.31;;;11.03;84.88
818;BME280;391;51.052;6.954;2023-03-22T04:59:01;100239.16;;;11.01;85.02
818;BME280;391;51.052;6.954;2023-03-22T05:01:05;100248.66;;;10.96;85.21
818;BME280;391;51.052;6.954;2023-03-22T05:03:12;100250.38;;;10.94;85.32
818;BME280;391;51.052;6.954;2023-03-22T05:05:19;100253.91;;;10.99;85.46
818;BME280;391;51.052;6.954;2023-03-22T05:07:24;100261.91;;;11.08;84.79
818;BME280;391;51.052;6.954;2023-03-22T05:09:31;100269.81;;;11.11;84.64
818;BME280;391;51.052;6.954;2023-03-22T05:11:36;100261.03;;;11.06;84.66
818;BME280;391;51.052;6.954;2023-03-22T05:13:58;100255.69;;;11.01;84.74
818;BME280;391;51.052;6.954;2023-03-22T05:16:03;100258.25;;;10.97;84.38
818;BME280;391;51.052;6.954;2023-03-22T05:18:18;100257.41;;;10.99;84.39
818;BME280;391;51.052;6.954;2023-03-22T05:20:24;100265.94;;;10.91;84.33
818;BME280;391;51.052;6.954;2023-03-22T05:22:40;100230.72;;;10.69;84.88
818;BME280;391;51.052;6.954;2023-03-22T05:24:45;100247.31;;;10.73;85.11
818;BME280;391;51.052;6.954;2023-03-22T05:26:54;100248.06;;;10.67;86.18
818;BME280;391;51.052;6.954;2023-03-22T05:29:00;100250.63;;;10.64;86.47
818;BME280;391;51.052;6.954;2023-03-22T05:31:30;100251.34;;;10.57;87.02
818;BME280;391;51.052;6.954;2023-03-22T05:33:36;100254.88;;;10.60;87.12
818;BME280;391;51.052;6.954;2023-03-22T05:35:43;100254.06;;;10.61;87.11
818;BME280;391;51.052;6.954;2023-03-22T05:37:46;100253.19;;;10.62;87.30
818;BME280;391;51.052;6.954;2023-03-22T05:39:50;100251.47;;;10.63;87.44
818;BME280;391;51.052;6.954;2023-03-22T05:41:58;100254.88;;;10.59;87.63
818;BME280;391;51.052;6.954;2023-03-22T05:44:02;100257.66;;;10.68;87.17
818;BME280;391;51.052;6.954;2023-03-22T05:46:08;100256.78;;;10.68;87.18
818;BME280;391;51.052;6.954;2023-03-22T05:48:29;100248.97;;;10.68;87.24
818;BME280;391;51.052;6.954;2023-03-22T05:50:33;100266.22;;;10.62;87.50
818;BME280;391;51.052;6.954;2023-03-22T05:52:38;100261.75;;;10.57;87.28
818;BME280;391;51.052;6.954;2023-03-22T05:55:14;100268.03;;;10.65;87.34
818;BME280;391;51.052;6.954;2023-03-22T05:57:19;100255.84;;;10.64;87.51
818;BME280;391;51.052;6.954;2023-03-22T05:59:23;100178.34;;;10.15;87.68
818;BME280;391;51.052;6.954;2023-03-22T06:01:26;100254.88;;;10.60;87.50
818;BME280;391;51.052;6.954;2023-03-22T06:03:49;100258.41;;;10.62;87.76
818;BME280;391;51.052;6.954;2023-03-22T06:06:13;100254.81;;;10.57;88.29
818;BME280;391;51.052;6.954;2023-03-22T06:08:27;100259.31;;;10.65;87.96
818;BME280;391;51.052;6.954;2023-03-22T06:10:33;100262.84;;;10.67;88.05
818;BME280;391;51.052;6.954;2023-03-22T06:12:37;100254.06;;;10.61;88.26
818;BME280;391;51.052;6.954;2023-03-22T06:14:46;100256.91;;;10.74;87.98
818;BME280;391;51.052;6.954;2023-03-22T06:17:12;100140.75;;;10.04;88.46
818;BME280;391;51.052;6.954;2023-03-22T06:19:16;100238.53;;;10.68;88.79
818;BME280;391;51.052;6.954;2023-03-22T06:21:19;100254.22;;;10.71;88.19
818;BME280;391;51.052;6.954;2023-03-22T06:23:23;100243.03;;;10.75;88.27
818;BME280;391;51.052;6.954;2023-03-22T06:25:29;100242.91;;;10.70;88.62
818;BME280;391;51.052;6.954;2023-03-22T06:27:33;100253.56;;;10.81;88.26
818;BME280;391;51.052;6.954;2023-03-22T06:29:37;100250.91;;;10.78;88.22
818;BME280;391;51.052;6.954;2023-03-22T06:31:41;100260.41;;;10.76;88.30
818;BME280;391;51.052;6.954;2023-03-22T06:33:45;100259.69;;;10.83;88.32
818;BME280;391;51.052;6.954;2023-03-22T06:36:03;100225.63;;;10.74;87.52
818;BME280;391;51.052;6.954;2023-03-22T06:38:13;100263.34;;;10.91;87.62
818;BME280;391;51.052;6.954;2023-03-22T06:40:17;100263.41;;;10.94;87.75
818;BME280;391;51.052;6.954;2023-03-22T06:42:22;100253.03;;;10.98;87.60
818;BME280;391;51.052;6.954;2023-03-22T06:44:37;100254.03;;;11.05;87.20
818;BME280;391;51.052;6.954;2023-03-22T06:46:48;100255.88;;;11.09;87.13
818;BME280;391;51.052;6.954;2023-03-22T06:49:12;100270.66;;;11.10;86.77
818;BME280;391;51.052;6.954;2023-03-22T06:51:16;100184.56;;;10.63;87.47
818;BME280;391;51.052;6.954;2023-03-22T06:53:20;100264.81;;;11.23;86.85
818;BME280;391;51.052;6.954;2023-03-22T06:55:24;100264.94;;;11.29;86.63
818;BME280;391;51.052;6.954;2023-03-22T06:57:29;100265.84;;;11.31;86.54
818;BME280;391;51.052;6.954;2023-03-22T06:59:32;100261.50;;;11.32;86.21
818;BME280;391;51.052;6.954;2023-03-22T07:01:36;100265.91;;;11.34;86.26
818;BME280;391;51.052;6.954;2023-03-22T07:03:40;100249.28;;;11.31;86.07
818;BME280;391;51.052;6.954;2023-03-22T07:05:49;100259.91;;;11.40;85.95
818;BME280;391;51.052;6.954;2023-03-22T07:07:53;100251.31;;;11.45;85.83
818;BME280;391;51.052;6.954;2023-03-22T07:09:56;100258.28;;;11.46;85.55
818;BME280;391;51.052;6.954;2023-03-22T07:12:00;100256.50;;;11.44;85.56
818;BME280;391;51.052;6.954;2023-03-22T07:14:05;100257.47;;;11.50;85.14
818;BME280;391;51.052;6.954;2023-03-22T07:16:27;100236.44;;;11.41;84.89
818;BME280;391;51.052;6.954;2023-03-22T07:18:34;100229.44;;;11.39;85.02
818;BME280;391;51.052;6.954;2023-03-22T07:20:39;100245.31;;;11.52;84.74
818;BME280;391;51.052;6.954;2023-03-22T07:22:44;100228.75;;;11.50;84.57
818;BME280;391;51.052;6.954;2023-03-22T07:24:48;100236.78;;;11.62;84.09
818;BME280;391;51.052;6.954;2023-03-22T07:27:02;100238.63;;;11.68;83.89
818;BME280;391;51.052;6.954;2023-03-22T07:29:09;100242.34;;;11.81;83.64
818;BME280;391;51.052;6.954;2023-03-22T07:31:13;100238.00;;;11.80;83.22
818;BME280;391;51.052;6.954;2023-03-22T07:33:41;100235.44;;;11.83;83.07
818;BME280;391;51.052;6.954;2023-03-22T07:35:45;100230.34;;;11.92;83.10
818;BME280;391;51.052;6.954;2023-03-22T07:37:49;100235.88;;;12.13;82.32
818;BME280;391;51.052;6.954;2023-03-22T07:40:00;100233.25;;;12.11;82.16
818;BME280;391;51.052;6.954;2023-03-22T07:42:05;100241.97;;;12.12;82.18
818;BME280;391;51.052;6.954;2023-03-22T07:44:22;100240.03;;;11.99;82.24
818;BME280;391;51.052;6.954;2023-03-22T07:46:43;100202.50;;;11.94;81.56
818;BME280;391;51.052;6.954;2023-03-22T07:48:57;100230.72;;;12.19;80.68
818;BME280;391;51.052;6.954;2023-03-22T07:51:20;100234.13;;;12.13;80.85
818;BME280;391;51.052;6.954;2023-03-22T07:53:24;100234.16;;;12.15;80.47
818;BME280;391;51.052;6.954;2023-03-22T07:55:28;100227.38;;;12.28;80.18
818;BME280;391;51.052;6.954;2023-03-22T07:57:32;100230.16;;;12.41;79.41
818;BME280;391;51.052;6.954;2023-03-22T07:59:37;100235.25;;;12.32;78.94
818;BME280;391;51.052;6.954;2023-03-22T08:01:42;100227.41;;;12.32;78.55
818;BME280;391;51.052;6.954;2023-03-22T08:04:01;100229.22;;;12.35;78.69
818;BME280;391;51.052;6.954;2023-03-22T08:06:24;100236.34;;;12.48;78.32
818;BME280;391;51.052;6.954;2023-03-22T08:08:27;100233.66;;;12.40;78.25
818;BME280;391;51.052;6.954;2023-03-22T08:10:33;100234.63;;;12.47;78.16
818;BME280;391;51.052;6.954;2023-03-22T08:12:39;100236.56;;;12.63;78.10
818;BME280;391;51.052;6.954;2023-03-22T08:14:52;100237.59;;;12.77;77.64
818;BME280;391;51.052;6.954;2023-03-22T08:16:59;100233.94;;;12.64;78.17
818;BME280;391;51.052;6.954;2023-03-22T08:19:05;100233.34;;;12.85;77.85
818;BME280;391;51.052;6.954;2023-03-22T08:21:11;100227.31;;;12.92;77.72
818;BME280;391;51.052;6.954;2023-03-22T08:23:22;100227.44;;;13.04;77.17
818;BME280;391;51.052;6.954;2023-03-22T08:26:02;100220.03;;;12.67;74.40
818;BME280;391;51.052;6.954;2023-03-22T08:28:07;100138.34;;;12.14;74.36
818;BME280;391;51.052;6.954;2023-03-22T08:30:14;100235.03;;;12.83;74.89
818;BME280;391;51.052;6.954;2023-03-22T08:32:18;100229.72;;;12.74;74.45
818;BME280;391;51.052;6.954;2023-03-22T08:34:21;100234.09;;;12.77;74.85
818;BME280;391;51.052;6.954;2023-03-22T08:36:26;100229.09;;;12.95;74.19
818;BME280;391;51.052;6.954;2023-03-22T08:38:37;100126.22;;;12.22;73.03
818;BME280;391;51.052;6.954;2023-03-22T08:40:41;100258.59;;;12.82;72.29
818;BME280;391;51.052;6.954;2023-03-22T08:42:48;100242.13;;;12.93;72.71
818;BME280;391;51.052;6.954;2023-03-22T08:44:51;100247.53;;;13.07;71.82
818;BME280;391;51.052;6.954;2023-03-22T08:46:59;100245.84;;;13.12;71.46
818;BME280;391;51.052;6.954;2023-03-22T08:49:05;100225.59;;;12.94;71.31
818;BME280;391;51.052;6.954;2023-03-22T08:51:23;100239.84;;;13.17;70.75
818;BME280;391;51.052;6.954;2023-03-22T08:53:44;100232.59;;;12.95;68.00
818;BME280;391;51.052;6.954;2023-03-22T08:56:10;100243.13;;;13.03;66.15
818;BME280;391;51.052;6.954;2023-03-22T08:58:24;100224.81;;;13.03;66.25
818;BME280;391;51.052;6.954;2023-03-22T09:01:03;100247.72;;;13.20;65.41
818;BME280;391;51.052;6.954;2023-03-22T09:03:16;100251.94;;;13.09;63.59
818;BME280;391;51.052;6.954;2023-03-22T09:05:19;100248.56;;;13.21;63.10
818;BME280;391;51.052;6.954;2023-03-22T09:07:23;100250.22;;;13.11;62.54
818;BME280;391;51.052;6.954;2023-03-22T09:09:38;100242.06;;;12.87;62.30
818;BME280;391;51.052;6.954;2023-03-22T09:11:43;100134.97;;;12.26;63.07
818;BME280;391;51.052;6.954;2023-03-22T09:13:46;100252.44;;;12.80;63.18
818;BME280;391;51.052;6.954;2023-03-22T09:15:51;100242.88;;;12.83;63.72
818;BME280;391;51.052;6.954;2023-03-22T09:18:00;100251.09;;;13.10;63.18
818;BME280;391;51.052;6.954;2023-03-22T09:20:06;100245.69;;;13.00;62.28
818;BME280;391;51.052;6.954;2023-03-22T09:22:15;100237.84;;;13.00;62.91
818;BME280;391;51.052;6.954;2023-03-22T09:24:22;100250.22;;;13.10;63.10
818;BME280;391;51.052;6.954;2023-03-22T09:26:28;100242.44;;;13.14;63.57
818;BME280;391;51.052;6.954;2023-03-22T09:28:34;100246.78;;;13.15;62.69
818;BME280;391;51.052;6.954;2023-03-22T09:30:42;100130.03;;;12.48;62.65
818;BME280;391;51.052;6.954;2023-03-22T09:32:49;100249.41;;;13.14;63.15
818;BME280;391;51.052;6.954;2023-03-22T09:34:54;100234.56;;;13.16;62.83
818;BME280;391;51.052;6.954;2023-03-22T09:37:01;100234.63;;;13.20;63.21
818;BME280;391;51.052;6.954;2023-03-22T09:39:16;100237.34;;;13.31;62.68
818;BME280;391;51.052;6.954;2023-03-22T09:41:30;100228.56;;;13.26;62.41
818;BME280;391;51.052;6.954;2023-03-22T09:43:41;100228.56;;;13.26;62.88
818;BME280;391;51.052;6.954;2023-03-22T09:45:50;100230.53;;;13.48;63.19
818;BME280;391;51.052;6.954;2023-03-22T09:47:55;100229.69;;;13.52;62.83
818;BME280;391;51.052;6.954;2023-03-22T09:50:05;100117.47;;;12.95;63.33
818;BME280;391;51.052;6.954;2023-03-22T09:52:12;100129.00;;;13.14;62.58
818;BME280;391;51.052;6.954;2023-03-22T09:54:19;100228.84;;;13.59;62.51
818;BME280;391;51.052;6.954;2023-03-22T09:56:25;100232.94;;;13.29;62.44
818;BME280;391;51.052;6.954;2023-03-22T09:58:32;100236.41;;;13.26;63.34
818;BME280;391;51.052;6.954;2023-03-22T10:00:41;100228.72;;;13.43;63.39
818;BME280;391;51.052;6.954;2023-03-22T10:02:52;100236.78;;;13.65;62.40
818;BME280;391;51.052;6.954;2023-03-22T10:05:03;100231.41;;;13.53;62.08
818;BME280;391;51.052;6.954;2023-03-22T10:07:21;100225.34;;;13.54;62.43
818;BME280;391;51.052;6.954;2023-03-22T10:09:30;100222.53;;;13.33;62.29
818;BME280;391;51.052;6.954;2023-03-22T10:11:41;100223.19;;;13.11;63.01
818;BME280;391;51.052;6.954;2023-03-22T10:13:56;100185.47;;;12.97;62.62
818;BME280;391;51.052;6.954;2023-03-22T10:16:04;100218.00;;;13.18;62.46
818;BME280;391;51.052;6.954;2023-03-22T10:18:12;100223.50;;;13.43;61.66
818;BME280;391;51.052;6.954;2023-03-22T10:20:26;100203.56;;;13.58;61.50
818;BME280;391;51.052;6.954;2023-03-22T10:22:37;100138.66;;;13.22;61.05
818;BME280;391;51.052;6.954;2023-03-22T10:24:45;100131.69;;;13.24;61.10
818;BME280;391;51.052;6.954;2023-03-22T10:26:51;100226.41;;;13.82;60.70
818;BME280;391;51.052;6.954;2023-03-22T10:28:57;100215.03;;;13.77;60.31
818;BME280;391;51.052;6.954;2023-03-22T10:31:08;100197.53;;;13.71;59.55
818;BME280;391;51.052;6.954;2023-03-22T10:33:20;100200.09;;;13.62;60.09
818;BME280;391;51.052;6.954;2023-03-22T10:35:25;100211.56;;;13.79;60.48
818;BME280;391;51.052;6.954;2023-03-22T10:37:33;100215.03;;;13.77;60.59
818;BME280;391;51.052;6.954;2023-03-22T10:39:41;100220.25;;;13.71;61.21
818;BME280;391;51.052;6.954;2023-03-22T10:41:46;100216.91;;;13.93;61.63
818;BME280;391;51.052;6.954;2023-03-22T10:43:53;100219.63;;;14.08;60.61
818;BME280;391;51.052;6.954;2023-03-22T10:45:57;100114.47;;;13.60;60.24
818;BME280;391;51.052;6.954;2023-03-22T10:48:06;100217.03;;;14.10;59.60
818;BME280;391;51.052;6.954;2023-03-22T10:50:17;100217.03;;;14.10;59.82
818;BME280;391;51.052;6.954;2023-03-22T10:52:35;100191.63;;;14.07;59.35
818;BME280;391;51.052;6.954;2023-03-22T10:54:40;100236.22;;;14.06;59.20
818;BME280;391;51.052;6.954;2023-03-22T10:56:44;100215.13;;;13.92;59.61
818;BME280;391;51.052;6.954;2023-03-22T10:58:48;100217.59;;;13.72;60.79
818;BME280;391;51.052;6.954;2023-03-22T11:00:57;100228.22;;;13.85;60.26
818;BME280;391;51.052;6.954;2023-03-22T11:03:04;100222.81;;;13.66;61.22
818;BME280;391;51.052;6.954;2023-03-22T11:05:18;100211.56;;;13.79;60.98
818;BME280;391;51.052;6.954;2023-03-22T11:07:34;100220.38;;;13.92;60.41
818;BME280;391;51.052;6.954;2023-03-22T11:09:38;100222.06;;;13.81;59.98
818;BME280;391;51.052;6.954;2023-03-22T11:11:47;100221.94;;;13.66;60.01
818;BME280;391;51.052;6.954;2023-03-22T11:13:59;100210.56;;;13.62;60.17
818;BME280;391;51.052;6.954;2023-03-22T11:16:04;100228.06;;;13.69;59.77
818;BME280;391;51.052;6.954;2023-03-22T11:18:12;100218.41;;;13.61;60.39
818;BME280;391;51.052;6.954;2023-03-22T11:20:18;100214.81;;;13.50;60.52
818;BME280;391;51.052;6.954;2023-03-22T11:22:25;100223.50;;;13.44;60.17
818;BME280;391;51.052;6.954;2023-03-22T11:24:34;100238.22;;;13.32;61.14
818;BME280;391;51.052;6.954;2023-03-22T11:26:37;100221.69;;;13.39;60.79
818;BME280;391;51.052;6.954;2023-03-22T11:28:45;100217.28;;;13.30;60.79
818;BME280;391;51.052;6.954;2023-03-22T11:31:01;100127.63;;;12.66;61.03
818;BME280;391;51.052;6.954;2023-03-22T11:33:15;100227.81;;;13.39;61.07
818;BME280;391;51.052;6.954;2023-03-22T11:35:21;100222.59;;;13.39;60.82
818;BME280;391;51.052;6.954;2023-03-22T11:37:27;100225.09;;;13.29;60.17
818;BME280;391;51.052;6.954;2023-03-22T11:39:30;100228.59;;;13.31;59.79
818;BME280;391;51.052;6.954;2023-03-22T11:41:36;100129.47;;;12.75;59.97
818;BME280;391;51.052;6.954;2023-03-22T11:43:45;100220.84;;;13.41;59.96
818;BME280;391;51.052;6.954;2023-03-22T11:45:53;100223.38;;;13.32;60.06
818;BME280;391;51.052;6.954;2023-03-22T11:48:01;100206.84;;;13.36;60.57
818;BME280;391;51.052;6.954;2023-03-22T11:50:07;100224.44;;;13.49;60.17
818;BME280;391;51.052;6.954;2023-03-22T11:52:15;100212.03;;;13.30;59.93
818;BME280;391;51.052;6.954;2023-03-22T11:54:26;100219.94;;;13.38;59.91
818;BME280;391;51.052;6.954;2023-03-22T11:56:31;100211.06;;;13.20;60.16